QFA290 YMML-YSSY
Flight info
| Callsign | QFA290 |
|---|---|
| Flight time | N/A |
| Altitude | 37000 |
| Route | DOSEL2/34 DOSEL Y59 RIVET |
| Aircraft | B772/H-SDE2E3FGHIJ5LORVWXY/LB1D1 |
Departure
| Time | 2026-04-30 09:34 |
|---|---|
| Airport | Melbourne Airport (YMML) |
Arrival
| Time | N/A |
|---|---|
| Airport | Sydney Kingsford Smith International Airport (YSSY) |
| Time | Latitude | Longitude | Altitude | Speed | Heading |
|---|---|---|---|---|---|
| 2026-04-30 09:25 | -37.67553 | 144.84337 | 449 ft | 0 kts | 171° |
| 2026-04-30 09:27 | -37.67572 | 144.84341 | 449 ft | 5 kts | 172° |
| 2026-04-30 09:27 | -37.67630 | 144.84351 | 449 ft | 10 kts | 172° |
| 2026-04-30 09:27 | -37.67721 | 144.84366 | 448 ft | 15 kts | 173° |
| 2026-04-30 09:28 | -37.67841 | 144.84390 | 448 ft | 19 kts | 171° |
| 2026-04-30 09:28 | -37.67985 | 144.84416 | 448 ft | 22 kts | 171° |
| 2026-04-30 09:28 | -37.68138 | 144.84445 | 448 ft | 23 kts | 172° |
| 2026-04-30 09:28 | -37.68212 | 144.84459 | 448 ft | 10 kts | 172° |
| 2026-04-30 09:29 | -37.68296 | 144.84474 | 448 ft | 7 kts | 173° |
| 2026-04-30 09:29 | -37.68365 | 144.84456 | 448 ft | 12 kts | 207° |
| 2026-04-30 09:29 | -37.68451 | 144.84386 | 448 ft | 16 kts | 214° |
| 2026-04-30 09:29 | -37.68485 | 144.84355 | 448 ft | 4 kts | 216° |
| 2026-04-30 09:30 | -37.68525 | 144.84315 | 448 ft | 9 kts | 227° |
| 2026-04-30 09:30 | -37.68547 | 144.84264 | 448 ft | 0 kts | 253° |
| 2026-04-30 09:33 | -37.68550 | 144.84247 | 448 ft | 4 kts | 257° |
| 2026-04-30 09:33 | -37.68558 | 144.84186 | 448 ft | 9 kts | 265° |
| 2026-04-30 09:33 | -37.68542 | 144.84100 | 448 ft | 11 kts | 325° |
| 2026-04-30 09:34 | -37.68448 | 144.84074 | 448 ft | 18 kts | 351° |
| 2026-04-30 09:34 | -37.68109 | 144.84013 | 449 ft | 100 kts | 349° |
| 2026-04-30 09:34 | -37.67144 | 144.83852 | 796 ft | 164 kts | 353° |
| 2026-04-30 09:34 | -37.66094 | 144.83635 | 2299 ft | 153 kts | 353° |
| 2026-04-30 09:35 | -37.65266 | 144.83469 | 3535 ft | 114 kts | 352° |
| 2026-04-30 09:35 | -37.64592 | 144.83339 | 4320 ft | 89 kts | 351° |
| 2026-04-30 09:35 | -37.63985 | 144.83221 | 4667 ft | 96 kts | 351° |
| 2026-04-30 09:35 | -37.63288 | 144.83087 | 5001 ft | 109 kts | 351° |
| 2026-04-30 09:36 | -37.62408 | 144.82919 | 5145 ft | 147 kts | 351° |
| 2026-04-30 09:36 | -37.61240 | 144.82697 | 5068 ft | 187 kts | 351° |
| 2026-04-30 09:36 | -37.59873 | 144.82471 | 5046 ft | 213 kts | 358° |
| 2026-04-30 09:36 | -37.58296 | 144.82806 | 5061 ft | 241 kts | 19° |
| 2026-04-30 09:37 | -37.56711 | 144.83723 | 5057 ft | 252 kts | 24° |
| 2026-04-30 09:37 | -37.55133 | 144.84705 | 5055 ft | 255 kts | 24° |
| 2026-04-30 09:37 | -37.53519 | 144.85696 | 5042 ft | 255 kts | 24° |
| 2026-04-30 09:37 | -37.51913 | 144.86675 | 5045 ft | 255 kts | 24° |
| 2026-04-30 09:38 | -37.50320 | 144.87642 | 5050 ft | 255 kts | 24° |
| 2026-04-30 09:38 | -37.48701 | 144.88623 | 5046 ft | 255 kts | 23° |
| 2026-04-30 09:38 | -37.47118 | 144.89583 | 5043 ft | 255 kts | 24° |
| 2026-04-30 09:38 | -37.45475 | 144.90578 | 5191 ft | 271 kts | 24° |
| 2026-04-30 09:39 | -37.43896 | 144.91801 | 6373 ft | 269 kts | 38° |
| 2026-04-30 09:39 | -37.42666 | 144.93529 | 7478 ft | 270 kts | 50° |
| 2026-04-30 09:39 | -37.41547 | 144.95447 | 8307 ft | 278 kts | 51° |
| 2026-04-30 09:39 | -37.40416 | 144.97441 | 9210 ft | 283 kts | 51° |
| 2026-04-30 09:40 | -37.39274 | 144.99468 | 10082 ft | 288 kts | 51° |
| 2026-04-30 09:40 | -37.38094 | 145.01553 | 10757 ft | 300 kts | 51° |
| 2026-04-30 09:40 | -37.36861 | 145.03734 | 11304 ft | 317 kts | 51° |
| 2026-04-30 09:40 | -37.35540 | 145.06070 | 11878 ft | 333 kts | 51° |
| 2026-04-30 09:41 | -37.34170 | 145.08490 | 12446 ft | 349 kts | 52° |
| 2026-04-30 09:41 | -37.32747 | 145.11006 | 13032 ft | 364 kts | 52° |
| 2026-04-30 09:41 | -37.31242 | 145.13666 | 13651 ft | 377 kts | 52° |
| 2026-04-30 09:41 | -37.29716 | 145.16359 | 14487 ft | 384 kts | 52° |
| 2026-04-30 09:42 | -37.28169 | 145.19089 | 15447 ft | 388 kts | 52° |
| 2026-04-30 09:42 | -37.26590 | 145.21872 | 16433 ft | 392 kts | 51° |
| 2026-04-30 09:42 | -37.25024 | 145.24628 | 17349 ft | 396 kts | 51° |
| 2026-04-30 09:42 | -37.23405 | 145.27473 | 18262 ft | 400 kts | 51° |
| 2026-04-30 09:43 | -37.21791 | 145.30307 | 19118 ft | 405 kts | 51° |
| 2026-04-30 09:43 | -37.20140 | 145.33205 | 19907 ft | 411 kts | 51° |
| 2026-04-30 09:43 | -37.18462 | 145.36144 | 20700 ft | 417 kts | 51° |
| 2026-04-30 09:43 | -37.16765 | 145.39116 | 21498 ft | 422 kts | 51° |
| 2026-04-30 09:44 | -37.15053 | 145.42111 | 22273 ft | 427 kts | 51° |
| 2026-04-30 09:44 | -37.13309 | 145.45154 | 23006 ft | 432 kts | 51° |
| 2026-04-30 09:44 | -37.11555 | 145.48213 | 23762 ft | 437 kts | 51° |
| 2026-04-30 09:44 | -37.09779 | 145.51308 | 24531 ft | 441 kts | 51° |
| 2026-04-30 09:45 | -37.07969 | 145.54459 | 25268 ft | 446 kts | 51° |
| 2026-04-30 09:45 | -37.06176 | 145.57577 | 25917 ft | 451 kts | 51° |
| 2026-04-30 09:45 | -37.04335 | 145.60777 | 26586 ft | 456 kts | 51° |
| 2026-04-30 09:45 | -37.02465 | 145.64024 | 27239 ft | 460 kts | 52° |
| 2026-04-30 09:46 | -37.00571 | 145.67308 | 27898 ft | 464 kts | 51° |
| 2026-04-30 09:46 | -36.98693 | 145.70563 | 28511 ft | 469 kts | 51° |
| 2026-04-30 09:46 | -36.96776 | 145.73881 | 29091 ft | 474 kts | 51° |
| 2026-04-30 09:46 | -36.94819 | 145.77266 | 29706 ft | 477 kts | 51° |
| 2026-04-30 09:47 | -36.92901 | 145.80580 | 30470 ft | 477 kts | 51° |
| 2026-04-30 09:47 | -36.90945 | 145.83958 | 31303 ft | 476 kts | 51° |
| 2026-04-30 09:47 | -36.89002 | 145.87308 | 32068 ft | 476 kts | 51° |
| 2026-04-30 09:47 | -36.87037 | 145.90692 | 32796 ft | 477 kts | 52° |
| 2026-04-30 09:48 | -36.85074 | 145.94069 | 33510 ft | 477 kts | 51° |
| 2026-04-30 09:48 | -36.83085 | 145.97487 | 34290 ft | 477 kts | 51° |
| 2026-04-30 09:48 | -36.81146 | 146.00816 | 35174 ft | 475 kts | 52° |
| 2026-04-30 09:48 | -36.79201 | 146.04152 | 36113 ft | 472 kts | 51° |
| 2026-04-30 09:49 | -36.77255 | 146.07486 | 37001 ft | 468 kts | 51° |
| 2026-04-30 09:49 | -36.75350 | 146.10745 | 37367 ft | 472 kts | 51° |
| 2026-04-30 09:49 | -36.71477 | 146.17366 | 37379 ft | 469 kts | 51° |
| 2026-04-30 09:50 | -36.67634 | 146.23921 | 37374 ft | 469 kts | 51° |
| 2026-04-30 09:50 | -36.63788 | 146.30469 | 37363 ft | 469 kts | 52° |
| 2026-04-30 09:51 | -36.59939 | 146.37010 | 37365 ft | 470 kts | 52° |
| 2026-04-30 09:51 | -36.56059 | 146.43591 | 37360 ft | 470 kts | 52° |
| 2026-04-30 09:52 | -36.52198 | 146.50128 | 37358 ft | 471 kts | 52° |
| 2026-04-30 09:52 | -36.48343 | 146.56642 | 37359 ft | 469 kts | 52° |
| 2026-04-30 09:53 | -36.44481 | 146.63155 | 37373 ft | 472 kts | 52° |
| 2026-04-30 09:53 | -36.40588 | 146.69710 | 37365 ft | 470 kts | 51° |
| 2026-04-30 09:54 | -36.36691 | 146.76257 | 37369 ft | 470 kts | 51° |
| 2026-04-30 09:54 | -36.32797 | 146.82787 | 37376 ft | 470 kts | 51° |
| 2026-04-30 09:55 | -36.28914 | 146.89285 | 37369 ft | 470 kts | 51° |
| 2026-04-30 09:55 | -36.25016 | 146.95796 | 37365 ft | 470 kts | 52° |
| 2026-04-30 09:56 | -36.21077 | 147.02365 | 37359 ft | 470 kts | 52° |
| 2026-04-30 09:56 | -36.17188 | 147.08836 | 37369 ft | 472 kts | 52° |
| 2026-04-30 09:57 | -36.13261 | 147.15358 | 37368 ft | 470 kts | 52° |
| 2026-04-30 09:57 | -36.11308 | 147.18597 | 37236 ft | 470 kts | 52° |
| 2026-04-30 09:57 | -36.09360 | 147.21825 | 37626 ft | 475 kts | 52° |